Time;durP1;ratioP1;P1;durP2;ratioP2;P2;SDS_P1;SDS_P2;PMS_P1;PMS_P2;Temp;Humidity;BMP_temperature;BMP_pressure;BME280_temperature;BME280_humidity;BME280_pressure;Samples;Min_cycle;Max_cycle;Signal;HPM_P1;HPM_P2
2023/03/13 00:01:36;;;;;;;6.32;4.55;;;3.30;99.90;;;;;;4991987;28;20025;-51
2023/03/13 00:04:02;;;;;;;4.10;3.70;;;3.30;99.90;;;;;;4991036;28;20022;-55
2023/03/13 00:06:33;;;;;;;4.50;4.10;;;3.40;99.90;;;;;;4992198;28;20027;-54
2023/03/13 00:09:00;;;;;;;6.82;4.03;;;3.40;99.90;;;;;;4992339;28;20018;-51
2023/03/13 00:11:26;;;;;;;7.50;4.32;;;3.40;99.90;;;;;;4992124;28;20110;-51
2023/03/13 00:13:56;;;;;;;3.58;3.28;;;3.40;99.90;;;;;;4991995;28;20145;-56
2023/03/13 00:16:22;;;;;;;11.40;4.35;;;3.50;99.90;;;;;;4990940;28;20029;-53
2023/03/13 00:18:51;;;;;;;7.00;3.92;;;3.50;99.90;;;;;;4994829;28;20018;-49
2023/03/13 00:21:19;;;;;;;9.50;4.10;;;3.50;99.90;;;;;;4996035;28;20385;-54
2023/03/13 00:23:46;;;;;;;3.92;3.63;;;3.50;99.90;;;;;;4996016;28;20023;-52
2023/03/13 00:26:17;;;;;;;4.22;3.78;;;3.50;99.90;;;;;;4996144;28;20030;-52
2023/03/13 00:28:43;;;;;;;4.40;3.58;;;3.40;99.90;;;;;;4994564;28;20027;-53
2023/03/13 00:31:14;;;;;;;7.13;4.00;;;3.30;99.90;;;;;;4994914;28;20105;-55
2023/03/13 00:33:42;;;;;;;8.10;4.18;;;3.20;99.90;;;;;;4995073;28;20038;-52
2023/03/13 00:36:11;;;;;;;6.55;4.60;;;3.20;99.90;;;;;;4993817;28;20026;-48
2023/03/13 00:38:37;;;;;;;8.68;5.13;;;3.20;99.90;;;;;;4994404;28;20026;-51
2023/03/13 00:41:05;;;;;;;7.28;4.72;;;3.20;99.90;;;;;;4994349;28;20459;-52
2023/03/13 00:43:31;;;;;;;7.80;4.75;;;3.10;99.90;;;;;;4994243;28;20120;-54
2023/03/13 00:45:57;;;;;;;6.47;4.30;;;3.10;99.90;;;;;;4994489;28;20382;-52
2023/03/13 00:48:23;;;;;;;6.93;4.78;;;3.00;99.90;;;;;;4994446;28;20029;-50
2023/03/13 00:50:49;;;;;;;7.78;4.32;;;3.00;99.90;;;;;;4994222;28;20128;-50
2023/03/13 00:53:15;;;;;;;10.30;5.18;;;2.90;99.90;;;;;;4994362;28;20058;-52
2023/03/13 00:55:52;;;;;;;9.48;5.32;;;2.80;99.90;;;;;;4992733;28;20366;-50
2023/03/13 00:58:18;;;;;;;15.45;6.28;;;2.70;99.90;;;;;;4994416;28;20053;-55
2023/03/13 01:00:43;;;;;;;17.48;6.07;;;2.60;99.90;;;;;;4994099;28;20490;-52
2023/03/13 01:03:09;;;;;;;11.27;5.93;;;2.60;99.90;;;;;;4992859;28;20077;-52
2023/03/13 01:05:35;;;;;;;13.20;6.35;;;2.50;99.90;;;;;;4992759;28;20022;-49
2023/03/13 01:08:00;;;;;;;15.68;6.53;;;2.50;99.90;;;;;;4994062;28;20095;-52
2023/03/13 01:10:26;;;;;;;14.68;7.25;;;2.50;99.90;;;;;;4994135;28;20060;-55
2023/03/13 01:12:51;;;;;;;13.75;9.13;;;2.50;99.90;;;;;;4993991;28;20042;-51
2023/03/13 01:15:18;;;;;;;14.52;8.18;;;2.60;99.90;;;;;;4994033;28;20107;-50
2023/03/13 01:17:45;;;;;;;17.92;8.25;;;2.60;99.90;;;;;;4993955;28;20040;-54
2023/03/13 01:20:11;;;;;;;12.30;6.90;;;2.70;99.90;;;;;;4993999;28;20729;-52
2023/03/13 01:22:37;;;;;;;13.82;6.82;;;2.70;99.90;;;;;;4993658;28;20014;-50
2023/03/13 01:25:04;;;;;;;17.63;6.97;;;2.70;99.90;;;;;;4993824;28;20101;-54
2023/03/13 01:27:29;;;;;;;15.52;8.02;;;2.70;99.90;;;;;;4955278;28;1132724;-50
2023/03/13 01:29:55;;;;;;;21.10;9.55;;;2.70;99.90;;;;;;4994597;28;20355;-52
2023/03/13 01:32:21;;;;;;;17.20;7.97;;;2.70;99.90;;;;;;4994892;28;20101;-53
2023/03/13 01:34:46;;;;;;;15.43;7.78;;;2.80;99.90;;;;;;4994875;28;20499;-55
2023/03/13 01:37:12;;;;;;;15.70;7.43;;;2.80;99.90;;;;;;4994578;28;20065;-53
2023/03/13 01:39:38;;;;;;;17.10;7.13;;;2.80;99.90;;;;;;4994544;28;20457;-53
2023/03/13 01:42:04;;;;;;;9.75;5.60;;;2.80;99.90;;;;;;4995354;28;20050;-49
2023/03/13 01:44:52;;;;;;;10.55;5.35;;;2.80;99.90;;;;;;4994498;28;20062;-52
2023/03/13 01:47:17;;;;;;;8.00;5.38;;;2.70;99.90;;;;;;4994543;28;20045;-54
2023/03/13 01:49:44;;;;;;;12.38;5.25;;;2.70;99.90;;;;;;4994344;28;20026;-52
2023/03/13 01:52:15;;;;;;;7.75;4.90;;;2.60;99.90;;;;;;4994565;28;20605;-55
2023/03/13 01:54:50;;;;;;;6.93;5.05;;;2.60;99.90;;;;;;4994177;28;20646;-55
2023/03/13 01:57:33;;;;;;;11.13;5.03;;;2.50;99.90;;;;;;4994398;28;20015;-54
2023/03/13 02:00:07;;;;;;;7.97;5.20;;;2.40;99.90;;;;;;4994320;28;20039;-55
2023/03/13 02:02:35;;;;;;;9.75;4.43;;;2.40;99.90;;;;;;4994323;28;20109;-52
2023/03/13 02:05:04;;;;;;;14.48;4.68;;;2.30;99.90;;;;;;4993072;28;20026;-51
2023/03/13 02:07:45;;;;;;;5.03;3.80;;;2.30;99.90;;;;;;4994073;28;20578;-51
2023/03/13 02:10:14;;;;;;;11.65;6.88;;;2.20;99.90;;;;;;4994320;28;20018;-50
2023/03/13 02:12:41;;;;;;;7.82;4.22;;;2.10;99.90;;;;;;4993931;28;20030;-52
2023/03/13 02:15:06;;;;;;;8.40;5.18;;;2.00;99.90;;;;;;4994137;28;20027;-51
2023/03/13 02:17:34;;;;;;;7.03;4.10;;;1.90;99.90;;;;;;4994060;28;20396;-54
2023/03/13 02:19:59;;;;;;;9.05;4.18;;;1.90;99.90;;;;;;4993905;28;20077;-54
2023/03/13 02:22:46;;;;;;;10.07;4.43;;;1.80;99.90;;;;;;4993950;28;20437;-54
2023/03/13 02:25:23;;;;;;;6.63;4.82;;;1.80;99.90;;;;;;4993998;28;20362;-51
2023/03/13 02:27:55;;;;;;;6.30;4.07;;;1.80;99.90;;;;;;4992249;28;20043;-50
2023/03/13 02:30:21;;;;;;;6.18;4.10;;;1.80;99.90;;;;;;4993736;28;20030;-51
2023/03/13 02:32:47;;;;;;;6.75;3.95;;;1.70;99.90;;;;;;4993736;28;20062;-51
2023/03/13 02:35:16;;;;;;;7.63;4.05;;;1.70;99.90;;;;;;4993787;28;20060;-52
2023/03/13 02:37:46;;;;;;;6.88;3.92;;;1.60;99.90;;;;;;4993383;28;20105;-51
2023/03/13 02:40:17;;;;;;;3.83;3.30;;;1.60;99.90;;;;;;4992869;28;20110;-56
2023/03/13 02:42:44;;;;;;;8.57;4.65;;;1.60;99.90;;;;;;4993376;28;20027;-51
2023/03/13 02:45:13;;;;;;;4.80;3.95;;;1.60;99.90;;;;;;4993559;28;20068;-54
2023/03/13 02:47:39;;;;;;;5.50;3.80;;;1.50;99.90;;;;;;4993443;28;20026;-53
2023/03/13 02:50:05;;;;;;;5.45;3.58;;;1.50;99.90;;;;;;4993337;28;20029;-52
2023/03/13 02:52:36;;;;;;;7.30;4.00;;;1.50;99.90;;;;;;4993218;28;20101;-54
2023/03/13 02:55:08;;;;;;;6.38;3.90;;;1.50;99.90;;;;;;4993650;28;20030;-53
2023/03/13 02:57:34;;;;;;;12.00;4.03;;;1.50;99.90;;;;;;4991964;28;20030;-49
2023/03/13 03:00:00;;;;;;;4.65;3.60;;;1.50;99.90;;;;;;4993184;28;20039;-53
2023/03/13 03:02:26;;;;;;;6.25;4.75;;;1.50;99.90;;;;;;4993164;28;20026;-51
2023/03/13 03:04:52;;;;;;;6.97;3.42;;;1.50;99.90;;;;;;4992934;28;20037;-50
2023/03/13 03:07:17;;;;;;;7.60;3.70;;;1.40;99.90;;;;;;4993002;28;20026;-51
2023/03/13 03:09:43;;;;;;;6.40;3.60;;;1.40;99.90;;;;;;4992959;28;20450;-53
2023/03/13 03:12:09;;;;;;;6.78;3.92;;;1.40;99.90;;;;;;4993060;28;20362;-50
2023/03/13 03:14:35;;;;;;;8.05;4.30;;;1.40;99.90;;;;;;4992879;28;20120;-53
2023/03/13 03:17:00;;;;;;;6.97;4.57;;;1.40;99.90;;;;;;4992978;28;20683;-52
2023/03/13 03:19:26;;;;;;;5.97;4.85;;;1.30;99.90;;;;;;4992771;28;20038;-51
2023/03/13 03:21:52;;;;;;;8.40;4.50;;;1.30;99.90;;;;;;4992643;28;20049;-50
2023/03/13 03:24:17;;;;;;;4.63;3.75;;;1.30;99.90;;;;;;4992893;28;20433;-51
2023/03/13 03:26:43;;;;;;;9.48;3.80;;;1.30;99.90;;;;;;4992478;28;20057;-52
2023/03/13 03:29:09;;;;;;;4.10;3.70;;;1.20;99.90;;;;;;4992833;28;20401;-50
2023/03/13 03:31:35;;;;;;;4.65;3.65;;;1.20;99.90;;;;;;4992643;28;20034;-51
2023/03/13 03:34:01;;;;;;;7.13;3.83;;;1.20;99.90;;;;;;4992710;28;20037;-54
2023/03/13 03:36:27;;;;;;;4.68;3.97;;;1.10;99.90;;;;;;4991370;28;20030;-53
2023/03/13 03:38:53;;;;;;;5.47;4.10;;;1.10;99.90;;;;;;4992729;28;20018;-51
2023/03/13 03:41:19;;;;;;;10.15;4.25;;;1.10;99.90;;;;;;4992633;28;20030;-54
2023/03/13 03:43:46;;;;;;;6.80;3.58;;;1.10;99.90;;;;;;4992466;28;20054;-52
2023/03/13 03:46:12;;;;;;;4.30;3.97;;;1.00;99.90;;;;;;4992647;28;20018;-53
2023/03/13 03:48:38;;;;;;;4.50;4.10;;;1.00;99.90;;;;;;4991085;28;20031;-51
2023/03/13 03:51:04;;;;;;;7.00;4.03;;;1.00;99.90;;;;;;4992387;28;20638;-49
2023/03/13 03:53:31;;;;;;;5.38;4.25;;;1.00;99.90;;;;;;4992312;28;20026;-49
2023/03/13 03:55:57;;;;;;;5.45;4.32;;;1.00;99.90;;;;;;4992336;28;20117;-52
2023/03/13 03:58:23;;;;;;;5.07;4.18;;;0.90;99.90;;;;;;4992380;28;20018;-51
2023/03/13 04:00:49;;;;;;;10.27;4.50;;;0.90;99.90;;;;;;4991983;28;20434;-51
2023/03/13 04:03:15;;;;;;;9.55;4.80;;;0.90;99.90;;;;;;4992370;28;20061;-56
2023/03/13 04:05:42;;;;;;;6.03;4.72;;;0.90;99.90;;;;;;4992332;28;20046;-52
2023/03/13 04:08:08;;;;;;;8.57;4.80;;;0.90;99.90;;;;;;4992288;28;20077;-52
2023/03/13 04:10:34;;;;;;;7.68;4.22;;;0.90;99.90;;;;;;4992154;28;20030;-54
2023/03/13 04:12:59;;;;;;;7.68;4.30;;;0.90;99.90;;;;;;4992326;28;20392;-51
2023/03/13 04:15:25;;;;;;;5.82;4.75;;;0.80;99.90;;;;;;4990833;28;20058;-49
2023/03/13 04:17:51;;;;;;;6.45;4.20;;;0.80;99.90;;;;;;4992187;28;20561;-55
2023/03/13 04:20:17;;;;;;;6.00;4.30;;;0.80;99.90;;;;;;4992158;28;20117;-56
2023/03/13 04:22:43;;;;;;;11.25;4.57;;;0.70;99.90;;;;;;4991873;28;20033;-53
2023/03/13 04:25:09;;;;;;;11.30;4.65;;;0.70;99.90;;;;;;4992165;28;20027;-53
2023/03/13 04:27:35;;;;;;;14.00;4.40;;;0.60;99.90;;;;;;4991968;28;20089;-53
2023/03/13 04:30:01;;;;;;;10.30;4.75;;;0.70;99.90;;;;;;4992008;28;20030;-50
2023/03/13 04:32:27;;;;;;;13.40;4.65;;;0.70;99.90;;;;;;4992084;28;20018;-53
2023/03/13 04:34:52;;;;;;;6.32;4.78;;;0.70;99.90;;;;;;4991974;28;20023;-54
2023/03/13 04:37:18;;;;;;;8.20;4.15;;;0.70;99.90;;;;;;4990721;28;20031;-54
2023/03/13 04:39:44;;;;;;;13.45;4.38;;;0.70;99.90;;;;;;4991891;28;20029;-54
2023/03/13 04:42:11;;;;;;;5.82;3.70;;;0.70;99.90;;;;;;4991908;28;20466;-53
2023/03/13 04:44:36;;;;;;;7.63;4.63;;;0.70;99.90;;;;;;4990400;28;20030;-52
2023/03/13 04:47:03;;;;;;;14.60;6.55;;;0.70;99.90;;;;;;4991961;28;20014;-54
2023/03/13 04:49:28;;;;;;;20.50;11.05;;;0.80;99.90;;;;;;4991813;28;20042;-52
2023/03/13 04:51:54;;;;;;;26.65;15.07;;;0.80;99.90;;;;;;4991909;28;20113;-56
2023/03/13 04:54:20;;;;;;;9.65;5.72;;;0.80;99.90;;;;;;4991916;28;20027;-55
2023/03/13 04:56:45;;;;;;;7.30;5.22;;;0.80;99.90;;;;;;4991688;28;20033;-54
2023/03/13 04:59:12;;;;;;;8.38;4.72;;;0.80;99.90;;;;;;4991957;28;20054;-53
2023/03/13 05:01:38;;;;;;;11.73;4.85;;;0.80;99.90;;;;;;4991712;28;20126;-51
2023/03/13 05:04:04;;;;;;;9.95;4.82;;;0.80;99.90;;;;;;4992785;28;20039;-51
2023/03/13 05:06:30;;;;;;;16.23;4.57;;;0.80;99.90;;;;;;4995326;28;20076;-52
2023/03/13 05:08:56;;;;;;;9.95;5.03;;;0.80;99.90;;;;;;4995151;28;20042;-53
2023/03/13 05:11:22;;;;;;;7.78;4.38;;;0.90;99.90;;;;;;4995284;28;20098;-53
2023/03/13 05:13:48;;;;;;;9.05;4.60;;;0.90;99.90;;;;;;4994469;28;20040;-50
2023/03/13 05:16:13;;;;;;;9.93;4.63;;;0.90;99.90;;;;;;4994282;28;20105;-48
2023/03/13 05:18:39;;;;;;;7.85;4.82;;;1.00;99.90;;;;;;4994132;28;20030;-50
2023/03/13 05:21:05;;;;;;;8.68;5.07;;;1.10;99.90;;;;;;4994754;28;20026;-50
2023/03/13 05:23:31;;;;;;;6.53;4.65;;;1.20;99.90;;;;;;4994960;28;20018;-50
2023/03/13 05:25:57;;;;;;;11.95;4.85;;;1.20;99.90;;;;;;4994905;28;20030;-52
2023/03/13 05:28:23;;;;;;;6.88;4.07;;;1.20;99.90;;;;;;4994945;28;20046;-50
2023/03/13 05:30:48;;;;;;;8.60;3.90;;;1.20;99.90;;;;;;4994726;28;20034;-51
2023/03/13 05:33:14;;;;;;;8.15;4.10;;;1.30;99.90;;;;;;4995014;28;20121;-51
2023/03/13 05:35:40;;;;;;;8.38;3.72;;;1.40;99.90;;;;;;4994833;28;20393;-51
2023/03/13 05:38:06;;;;;;;26.50;6.22;;;1.30;99.90;;;;;;4994838;28;20084;-51
2023/03/13 05:40:32;;;;;;;6.93;3.47;;;1.40;99.90;;;;;;4994647;28;20117;-54
2023/03/13 05:42:58;;;;;;;8.77;4.22;;;1.40;99.90;;;;;;4994734;28;20030;-54
2023/03/13 05:45:24;;;;;;;12.98;4.22;;;1.50;99.90;;;;;;4994027;28;20033;-58
2023/03/13 05:47:50;;;;;;;5.63;4.43;;;1.50;99.90;;;;;;4992929;28;20597;-58
2023/03/13 05:50:16;;;;;;;7.47;4.10;;;1.50;99.90;;;;;;4995565;28;20038;-56
2023/03/13 05:52:42;;;;;;;8.48;4.03;;;1.50;99.90;;;;;;4992682;28;20045;-54
2023/03/13 05:55:08;;;;;;;14.00;4.32;;;1.60;99.90;;;;;;4993024;28;20042;-55
2023/03/13 05:57:33;;;;;;;4.88;3.67;;;1.70;99.90;;;;;;4993608;28;20030;-55
2023/03/13 06:00:00;;;;;;;9.93;4.20;;;1.60;99.90;;;;;;4994021;28;20425;-50
2023/03/13 06:02:25;;;;;;;7.03;4.60;;;1.70;99.90;;;;;;4994036;28;20033;-52
2023/03/13 06:04:51;;;;;;;79.63;44.78;;;1.70;99.90;;;;;;4993855;28;20018;-52
2023/03/13 06:07:17;;;;;;;28.98;18.50;;;1.80;99.90;;;;;;4993561;28;20014;-54
2023/03/13 06:09:42;;;;;;;19.50;8.93;;;1.80;99.90;;;;;;4993118;28;20026;-56
2023/03/13 06:12:12;;;;;;;30.50;16.35;;;1.90;99.90;;;;;;4993934;28;20069;-57
2023/03/13 06:14:37;;;;;;;35.80;16.60;;;2.00;99.90;;;;;;4992537;28;20605;-51
2023/03/13 06:17:04;;;;;;;28.98;14.30;;;1.90;99.90;;;;;;4993026;28;20032;-50
2023/03/13 06:19:30;;;;;;;23.80;13.55;;;2.00;99.90;;;;;;4993662;28;20069;-55
2023/03/13 06:21:56;;;;;;;32.05;15.68;;;2.10;99.90;;;;;;4993614;28;20054;-54
2023/03/13 06:24:22;;;;;;;24.35;13.50;;;2.10;99.90;;;;;;4993839;28;20645;-55
2023/03/13 06:26:48;;;;;;;26.25;13.32;;;2.20;99.90;;;;;;4993288;28;20049;-52
2023/03/13 06:29:15;;;;;;;20.20;13.48;;;2.20;99.90;;;;;;4993624;28;20030;-53
2023/03/13 06:31:40;;;;;;;20.65;11.63;;;2.20;99.90;;;;;;4993487;28;20050;-51
2023/03/13 06:34:09;;;;;;;15.98;9.73;;;2.20;99.90;;;;;;4993815;28;20104;-52
2023/03/13 06:36:35;;;;;;;12.98;9.05;;;2.20;99.90;;;;;;4993386;28;20057;-51
2023/03/13 06:39:01;;;;;;;28.48;16.05;;;2.40;99.90;;;;;;4993666;28;20088;-52
2023/03/13 06:41:26;;;;;;;18.95;11.82;;;2.40;99.90;;;;;;4993279;28;20450;-56
2023/03/13 06:43:52;;;;;;;13.40;10.85;;;2.60;99.90;;;;;;4992093;28;20165;-56
2023/03/13 06:46:21;;;;;;;7.95;5.72;;;2.70;99.90;;;;;;4992146;28;20022;-55
2023/03/13 06:48:47;;;;;;;11.48;5.97;;;2.70;99.90;;;;;;4993156;28;20033;-54
2023/03/13 06:51:14;;;;;;;9.02;6.38;;;2.80;99.90;;;;;;4992162;28;20030;-57
2023/03/13 06:53:40;;;;;;;8.23;6.07;;;2.90;99.90;;;;;;4993336;28;20065;-55
2023/03/13 06:56:07;;;;;;;25.70;14.95;;;3.00;99.90;;;;;;4989148;28;20030;-57
2023/03/13 06:58:32;;;;;;;59.30;31.95;;;3.20;99.90;;;;;;4992317;28;20038;-57
2023/03/13 07:01:13;;;;;;;14.93;9.40;;;3.30;99.90;;;;;;4992937;28;20052;-55
2023/03/13 07:03:42;;;;;;;11.88;7.22;;;3.40;99.90;;;;;;4992683;28;20109;-52
2023/03/13 07:06:09;;;;;;;13.90;6.63;;;3.50;99.90;;;;;;4992900;28;20019;-56
2023/03/13 07:08:36;;;;;;;12.52;6.88;;;3.60;99.90;;;;;;4993573;28;20053;-49
2023/03/13 07:11:05;;;;;;;18.48;8.45;;;3.90;99.90;;;;;;4992290;28;20026;-51
2023/03/13 07:13:31;;;;;;;18.33;11.27;;;4.00;99.90;;;;;;4992269;28;20027;-56
2023/03/13 07:16:03;;;;;;;18.60;6.97;;;4.30;99.90;;;;;;4992941;28;20026;-54
2023/03/13 07:18:29;;;;;;;16.40;9.73;;;4.40;99.90;;;;;;4992803;28;20053;-55
2023/03/13 07:20:57;;;;;;;17.88;8.77;;;4.70;99.90;;;;;;4992726;28;20074;-52
2023/03/13 07:23:24;;;;;;;22.73;8.80;;;4.90;99.90;;;;;;4992027;28;20077;-50
2023/03/13 07:25:58;;;;;;;15.73;9.38;;;5.10;99.90;;;;;;4991622;28;20034;-56
2023/03/13 07:28:25;;;;;;;14.52;7.50;;;5.40;99.90;;;;;;4991281;28;20382;-53
2023/03/13 07:30:51;;;;;;;61.28;41.35;;;5.70;99.90;;;;;;4991612;28;20118;-53
2023/03/13 07:33:17;;;;;;;19.75;12.93;;;5.90;99.90;;;;;;4990500;28;20691;-54
2023/03/13 07:35:50;;;;;;;28.77;18.33;;;6.20;99.90;;;;;;4991427;28;20116;-52
2023/03/13 07:38:17;;;;;;;16.67;11.35;;;6.40;99.90;;;;;;4992279;28;20026;-56
2023/03/13 07:40:54;;;;;;;16.63;9.35;;;6.60;99.90;;;;;;4992586;28;20056;-56
2023/03/13 07:43:20;;;;;;;16.27;11.05;;;6.90;99.90;;;;;;4992719;28;20061;-54
2023/03/13 07:45:53;;;;;;;45.30;29.10;;;7.10;99.90;;;;;;4992431;28;20077;-50
2023/03/13 07:48:19;;;;;;;22.20;13.27;;;7.30;99.90;;;;;;4992641;28;20015;-54
2023/03/13 07:50:45;;;;;;;14.82;10.60;;;7.30;99.90;;;;;;4990965;28;20489;-54
2023/03/13 07:53:10;;;;;;;13.38;8.25;;;7.40;99.90;;;;;;4992487;28;20062;-51
2023/03/13 07:55:36;;;;;;;10.48;6.15;;;7.50;99.90;;;;;;4992272;28;20072;-54
2023/03/13 07:58:02;;;;;;;11.07;6.82;;;7.70;99.90;;;;;;4992218;28;20026;-54
2023/03/13 08:00:27;;;;;;;11.85;7.13;;;7.90;99.90;;;;;;4991992;28;20023;-56
2023/03/13 08:02:53;;;;;;;11.05;5.88;;;7.90;99.90;;;;;;4992156;28;20541;-51
2023/03/13 08:05:18;;;;;;;8.90;5.15;;;8.00;99.90;;;;;;4992285;28;20026;-52
2023/03/13 08:07:44;;;;;;;14.90;6.57;;;8.20;99.90;;;;;;4990959;28;20030;-52
2023/03/13 08:10:10;;;;;;;12.63;5.32;;;8.30;99.90;;;;;;4992222;28;20035;-48
2023/03/13 08:12:36;;;;;;;7.30;5.28;;;8.60;99.90;;;;;;4992039;28;20376;-55
2023/03/13 08:15:01;;;;;;;7.95;4.47;;;8.50;99.90;;;;;;4992241;28;20109;-50
2023/03/13 08:17:30;;;;;;;10.55;4.18;;;8.70;99.90;;;;;;4992156;28;20065;-54
2023/03/13 08:19:56;;;;;;;4.00;2.70;;;8.80;99.90;;;;;;4992439;28;20099;-55
2023/03/13 08:22:21;;;;;;;8.52;3.15;;;8.90;99.90;;;;;;4992244;28;20042;-54
2023/03/13 08:24:47;;;;;;;9.43;3.72;;;9.00;99.90;;;;;;4991802;28;20449;-54
2023/03/13 08:27:13;;;;;;;8.00;3.10;;;9.30;99.90;;;;;;4990580;28;20039;-54
2023/03/13 08:29:38;;;;;;;4.03;2.63;;;9.60;99.90;;;;;;4991632;28;20369;-52
2023/03/13 08:32:04;;;;;;;5.07;2.63;;;9.80;99.90;;;;;;4991843;28;20027;-55
2023/03/13 08:34:30;;;;;;;6.63;2.72;;;10.00;99.90;;;;;;4991576;28;20057;-56
2023/03/13 08:36:57;;;;;;;8.65;3.60;;;10.20;99.90;;;;;;4992077;28;20030;-52
2023/03/13 08:39:23;;;;;;;18.15;4.95;;;10.20;99.90;;;;;;4992461;28;20026;-53
2023/03/13 08:41:49;;;;;;;4.82;3.50;;;10.20;99.90;;;;;;4995654;28;20034;-54
2023/03/13 08:44:17;;;;;;;11.30;4.60;;;10.40;99.90;;;;;;4995692;28;20153;-52
2023/03/13 08:46:42;;;;;;;8.40;3.33;;;10.60;99.90;;;;;;4995731;28;20036;-55
2023/03/13 08:49:12;;;;;;;4.32;2.60;;;10.50;99.90;;;;;;4995602;28;20105;-55
2023/03/13 08:51:39;;;;;;;5.15;3.17;;;10.70;99.90;;;;;;4995434;28;20044;-53
2023/03/13 08:54:05;;;;;;;8.82;3.35;;;10.60;99.90;;;;;;4995541;28;20030;-53
2023/03/13 08:56:31;;;;;;;11.05;3.67;;;10.20;99.90;;;;;;4994153;28;20038;-51
2023/03/13 08:58:59;;;;;;;16.13;4.07;;;10.00;99.90;;;;;;4995579;28;20105;-53
2023/03/13 09:01:27;;;;;;;8.13;2.60;;;9.70;99.90;;;;;;4995167;28;20037;-52
2023/03/13 09:03:53;;;;;;;3.95;2.40;;;9.60;99.90;;;;;;4995563;28;20106;-52
2023/03/13 09:06:19;;;;;;;10.07;3.03;;;9.70;99.90;;;;;;4995372;28;20114;-52
2023/03/13 09:08:45;;;;;;;6.78;2.45;;;9.70;99.90;;;;;;4995394;28;20101;-55
2023/03/13 09:11:13;;;;;;;17.38;3.28;;;9.70;99.90;;;;;;4995552;28;20030;-51
2023/03/13 09:13:42;;;;;;;28.42;3.33;;;9.60;99.90;;;;;;4995034;28;20428;-53
2023/03/13 09:16:13;;;;;;;11.05;3.25;;;9.50;99.90;;;;;;4995464;28;20069;-54
2023/03/13 09:18:39;;;;;;;5.35;2.30;;;9.30;99.90;;;;;;4995071;28;20023;-51
2023/03/13 09:21:26;;;;;;;6.03;2.65;;;9.20;99.90;;;;;;4994776;28;20182;-51
2023/03/13 09:23:52;;;;;;;31.50;8.50;;;9.30;99.90;;;;;;4994451;28;20030;-51
2023/03/13 09:26:18;;;;;;;14.15;3.65;;;9.30;99.90;;;;;;4994904;28;20026;-54
2023/03/13 09:28:44;;;;;;;3.53;2.90;;;9.40;99.90;;;;;;4995073;28;20030;-55
2023/03/13 09:31:13;;;;;;;13.27;5.25;;;9.60;99.90;;;;;;4995478;28;20080;-54
2023/03/13 09:33:39;;;;;;;9.07;5.60;;;9.70;99.90;;;;;;4995316;28;20085;-53
2023/03/13 09:36:05;;;;;;;47.15;8.10;;;9.90;99.90;;;;;;4994972;28;20023;-53
2023/03/13 09:38:31;;;;;;;7.97;5.03;;;10.10;99.90;;;;;;4994470;28;20072;-53
2023/03/13 09:41:17;;;;;;;8.90;3.78;;;10.20;99.90;;;;;;4995322;28;20030;-56
2023/03/13 09:43:45;;;;;;;8.27;2.90;;;10.50;99.90;;;;;;4994752;28;20069;-52
2023/03/13 09:46:50;;;;;;;14.70;3.85;;;10.60;99.90;;;;;;4994594;28;20367;-50
2023/03/13 09:49:33;;;;;;;;;;;10.70;99.90;;;;;;4971684;28;20038;-56
2023/03/13 09:52:16;;;;;;;2.73;2.30;;;11.00;99.90;;;;;;4994698;28;19980;-52
2023/03/13 09:54:48;;;;;;;4.25;2.47;;;11.10;99.90;;;;;;4994029;28;20073;-54
2023/03/13 09:57:17;;;;;;;12.68;5.28;;;11.10;99.90;;;;;;4994573;28;20425;-53
2023/03/13 10:00:05;;;;;;;16.00;3.35;;;10.80;99.90;;;;;;4994303;28;20421;-55
2023/03/13 10:02:35;;;;;;;5.13;3.83;;;10.80;99.90;;;;;;4994395;28;20045;-53
2023/03/13 10:05:07;;;;;;;8.35;3.17;;;10.90;99.90;;;;;;4994502;28;20038;-58
2023/03/13 10:07:32;;;;;;;4.63;2.65;;;10.90;99.90;;;;;;4994126;28;20354;-57
2023/03/13 10:10:00;;;;;;;12.50;2.80;;;11.10;99.90;;;;;;4994332;28;20026;-57
2023/03/13 10:12:37;;;;;;;12.20;3.08;;;11.10;99.90;;;;;;4976359;28;20106;-56
2023/03/13 10:15:21;;;;;;;15.32;9.73;;;11.10;99.90;;;;;;4964581;28;20026;-55
2023/03/13 10:17:47;;;;;;;;;;;11.20;99.90;;;;;;4964686;28;20553;-57
2023/03/13 10:20:28;;;;;;;9.02;3.92;;;11.40;99.90;;;;;;4964132;28;19925;-56
2023/03/13 10:23:02;;;;;;;25.45;6.88;;;11.40;99.90;;;;;;4963916;28;20082;-59
2023/03/13 10:25:38;;;;;;;10.93;3.90;;;11.50;99.90;;;;;;4963036;28;20489;-58
2023/03/13 10:28:05;;;;;;;30.45;9.45;;;11.50;99.90;;;;;;4962347;28;20076;-58
2023/03/13 10:30:34;;;;;;;13.65;3.70;;;11.50;99.90;;;;;;4963436;28;20034;-50
2023/03/13 10:33:07;;;;;;;20.10;10.27;;;11.70;99.90;;;;;;4964261;28;20131;-58
2023/03/13 10:35:36;;;;;;;13.60;3.90;;;11.90;99.90;;;;;;4965134;28;20506;-58
2023/03/13 10:38:11;;;;;;;10.95;2.70;;;11.80;99.90;;;;;;4964171;28;20034;-49
2023/03/13 10:40:37;;;;;;;3.30;2.03;;;11.90;99.90;;;;;;4963774;28;20491;-56
2023/03/13 10:43:17;;;;;;;7.80;2.92;;;12.10;99.90;;;;;;4963979;28;20069;-54
2023/03/13 10:45:43;;;;;;;3.88;2.08;;;12.00;99.90;;;;;;4963485;28;20055;-53
2023/03/13 10:48:24;;;;;;;4.03;2.38;;;11.90;99.90;;;;;;4963779;28;20035;-53
2023/03/13 10:50:56;;;;;;;13.50;4.22;;;12.10;99.90;;;;;;4963726;28;20467;-58
2023/03/13 10:53:27;;;;;;;7.30;2.72;;;12.20;99.90;;;;;;4962980;28;20087;-52
2023/03/13 10:55:56;;;;;;;5.40;2.97;;;12.10;99.90;;;;;;4963523;28;20347;-54
2023/03/13 10:58:32;;;;;;;10.10;2.60;;;12.00;99.90;;;;;;4963018;28;20022;-55
2023/03/13 11:01:16;;;;;;;12.48;2.90;;;12.00;99.90;;;;;;4960032;28;20560;-52
2023/03/13 11:03:42;;;;;;;;;;;12.20;99.90;;;;;;4963878;28;20586;-53
2023/03/13 11:06:23;;;;;;;8.63;2.47;;;12.60;99.90;;;;;;4961868;28;19993;-55
2023/03/13 11:08:56;;;;;;;8.07;2.38;;;13.30;99.20;;;;;;4962177;28;20106;-54
2023/03/13 11:11:22;;;;;;;5.07;2.40;;;13.60;97.80;;;;;;4972806;28;20080;-55
2023/03/13 11:13:48;;;;;;;13.23;2.63;;;13.80;95.70;;;;;;4962788;28;20084;-54
2023/03/13 11:16:23;;;;;;;5.68;1.95;;;14.00;96.80;;;;;;4963081;28;20114;-57
2023/03/13 11:19:09;;;;;;;6.93;1.90;;;14.10;93.90;;;;;;4973069;28;20039;-55
2023/03/13 11:21:37;;;;;;;2.55;1.63;;;14.30;95.40;;;;;;4967028;28;20037;-53
2023/03/13 11:24:14;;;;;;;3.78;2.00;;;14.50;95.10;;;;;;4981272;28;20102;-56
2023/03/13 11:27:00;;;;;;;4.53;1.88;;;14.80;95.40;;;;;;4968973;28;20043;-55
2023/03/13 11:29:53;;;;;;;4.22;2.42;;;15.40;94.80;;;;;;4955142;28;20058;-54
2023/03/13 11:32:28;;;;;;;8.27;1.75;;;15.90;94.40;;;;;;4962675;28;20498;-51
2023/03/13 11:34:59;;;;;;;2.55;2.00;;;16.10;92.40;;;;;;4965191;28;20450;-55
2023/03/13 11:37:27;;;;;;;10.13;4.30;;;17.20;93.30;;;;;;4962873;28;20042;-56
2023/03/13 11:40:11;;;;;;;7.78;2.63;;;17.60;90.40;;;;;;4962423;28;20046;-56
2023/03/13 11:42:39;;;;;;;4.78;2.65;;;18.80;88.80;;;;;;4981444;28;20473;-55
2023/03/13 11:45:28;;;;;;;6.82;2.90;;;19.50;82.50;;;;;;4981777;28;20041;-54
2023/03/13 11:48:02;;;;;;;8.25;2.25;;;19.60;81.90;;;;;;4977907;28;20038;-56
2023/03/13 11:50:36;;;;;;;6.85;2.22;;;20.10;80.80;;;;;;4981998;28;20089;-56
2023/03/13 11:53:15;;;;;;;10.13;2.05;;;20.80;77.50;;;;;;4981664;28;20113;-57
2023/03/13 11:55:43;;;;;;;7.45;2.20;;;20.90;73.50;;;;;;4980482;28;20027;-57
2023/03/13 11:58:27;;;;;;;4.97;1.83;;;20.60;71.30;;;;;;4990152;28;20081;-56
2023/03/13 12:01:10;;;;;;;6.85;2.35;;;20.40;72.00;;;;;;4991965;28;20062;-56
2023/03/13 12:03:36;;;;;;;;;;;19.90;71.50;;;;;;4992434;28;20062;-54
2023/03/13 12:06:03;;;;;;;14.57;2.85;;;20.00;73.40;;;;;;4991769;28;20032;-55
2023/03/13 12:09:11;;;;;;;26.55;3.15;;;19.40;73.10;;;;;;4991603;28;20023;-56
2023/03/13 12:11:42;;;;;;;4.68;2.25;;;19.30;74.40;;;;;;4991696;28;20019;-54
2023/03/13 12:14:34;;;;;;;11.25;6.68;;;19.00;71.90;;;;;;4995416;28;20369;-55
2023/03/13 12:17:04;;;;;;;7.05;2.83;;;18.60;73.60;;;;;;4995982;28;20413;-52
2023/03/13 12:19:56;;;;;;;4.95;2.63;;;18.20;73.20;;;;;;4995735;28;20026;-55
2023/03/13 12:22:29;;;;;;;3.60;2.30;;;17.80;75.10;;;;;;4995473;28;20121;-55
2023/03/13 12:25:08;;;;;;;13.07;2.92;;;17.20;76.70;;;;;;4995718;28;20022;-54
2023/03/13 12:27:43;;;;;;;4.75;2.55;;;16.80;76.20;;;;;;4995695;28;20449;-55
2023/03/13 12:30:36;;;;;;;10.23;2.97;;;16.90;78.00;;;;;;4996167;28;20038;-54
2023/03/13 12:33:24;;;;;;;6.15;2.22;;;17.60;77.80;;;;;;4996256;28;20026;-54
2023/03/13 12:36:02;;;;;;;6.72;3.75;;;18.10;75.50;;;;;;4995927;28;20039;-56
2023/03/13 12:38:45;;;;;;;5.88;2.47;;;18.30;73.70;;;;;;4995889;28;20092;-54
2023/03/13 12:41:23;;;;;;;5.20;3.10;;;18.60;74.00;;;;;;4995866;28;20659;-54
2023/03/13 12:43:51;;;;;;;8.45;3.53;;;18.80;71.70;;;;;;4995594;28;20300;-54
2023/03/13 12:46:49;;;;;;;5.18;2.97;;;20.10;69.10;;;;;;4995593;28;20033;-56
2023/03/13 12:49:41;;;;;;;5.25;1.75;;;20.60;65.00;;;;;;4991301;28;20113;-56
2023/03/13 12:52:16;;;;;;;5.60;2.15;;;21.60;62.50;;;;;;4995653;28;20069;-57
2023/03/13 12:54:42;;;;;;;5.05;2.30;;;21.90;61.20;;;;;;4991717;28;20343;-57
2023/03/13 12:57:26;;;;;;;4.13;2.30;;;22.10;59.30;;;;;;4978055;28;20034;-56
2023/03/13 12:59:59;;;;;;;7.32;2.13;;;22.10;59.00;;;;;;4973819;28;20042;-55
2023/03/13 13:02:29;;;;;;;2.67;1.80;;;22.90;55.80;;;;;;4975942;28;20035;-56